Time;durP1;ratioP1;P1;durP2;ratioP2;P2;SDS_P1;SDS_P2;PMS_P1;PMS_P2;Temp;Humidity;BMP_temperature;BMP_pressure;BME280_temperature;BME280_humidity;BME280_pressure;Samples;Min_cycle;Max_cycle;Signal;HPM_P1;HPM_P2
2021/07/25 00:02:24;;;;;;;12.17;10.93;;;23.70;99.90;;;;;;5048537;28;20466;-86
2021/07/25 00:04:51;;;;;;;12.60;11.30;;;23.70;99.90;;;;;;5047317;28;20467;-84
2021/07/25 00:07:19;;;;;;;13.03;11.73;;;23.70;99.90;;;;;;5047487;28;20447;-85
2021/07/25 00:09:45;;;;;;;13.87;12.47;;;23.70;99.90;;;;;;5046227;28;20515;-85
2021/07/25 00:12:19;;;;;;;12.13;10.90;;;23.60;99.90;;;;;;5045391;28;20501;-85
2021/07/25 00:14:48;;;;;;;15.13;12.17;;;23.60;99.90;;;;;;5043910;28;20477;-86
2021/07/25 00:17:15;;;;;;;13.60;12.10;;;23.50;99.90;;;;;;5043705;28;20451;-85
2021/07/25 00:19:41;;;;;;;12.10;10.93;;;23.40;99.90;;;;;;5042868;28;20486;-85
2021/07/25 00:22:09;;;;;;;13.37;12.17;;;23.30;99.90;;;;;;5042731;28;20447;-85
2021/07/25 00:24:47;;;;;;;14.30;12.77;;;23.30;99.90;;;;;;5041473;28;20509;-84
2021/07/25 00:27:16;;;;;;;15.60;12.30;;;23.20;99.90;;;;;;5040653;28;20552;-84
2021/07/25 00:29:43;;;;;;;16.60;12.90;;;22.80;99.90;;;;;;5042884;28;20477;-84
2021/07/25 00:32:09;;;;;;;15.77;13.50;;;23.30;99.90;;;;;;5057885;28;20458;-84
2021/07/25 00:34:42;;;;;;;14.18;12.52;;;23.00;99.90;;;;;;5046858;28;20521;-86
2021/07/25 00:37:09;;;;;;;14.00;12.60;;;23.00;99.90;;;;;;5041789;28;20204;-85
2021/07/25 00:39:36;;;;;;;14.50;13.00;;;23.00;99.90;;;;;;5040573;28;20511;-86
2021/07/25 00:42:04;;;;;;;15.00;13.53;;;22.90;99.90;;;;;;5040816;28;20501;-85
2021/07/25 00:44:31;;;;;;;16.30;13.80;;;22.80;99.90;;;;;;5041441;28;20467;-84
2021/07/25 00:47:01;;;;;;;48.23;38.50;;;22.80;99.90;;;;;;5055674;28;20474;-85
2021/07/25 00:49:29;;;;;;;15.10;13.60;;;22.70;99.90;;;;;;5057467;28;20787;-85
2021/07/25 00:51:56;;;;;;;17.90;13.30;;;22.70;99.90;;;;;;5047836;28;20914;-84
2021/07/25 00:54:23;;;;;;;14.10;12.80;;;22.60;99.90;;;;;;5041049;28;20471;-85
2021/07/25 00:56:51;;;;;;;15.40;13.80;;;22.60;99.90;;;;;;5040211;28;20208;-84
2021/07/25 00:59:18;;;;;;;15.95;14.10;;;22.60;99.90;;;;;;5040861;28;20489;-84
2021/07/25 01:01:46;;;;;;;15.87;13.70;;;22.50;99.90;;;;;;5040917;28;20204;-85
2021/07/25 01:04:24;;;;;;;15.60;13.90;;;22.30;99.90;;;;;;5040795;28;20473;-85
2021/07/25 01:07:05;;;;;;;15.07;13.47;;;22.40;99.90;;;;;;5039539;28;20446;-85
2021/07/25 01:09:40;;;;;;;15.17;13.67;;;22.30;99.90;;;;;;5038979;28;20427;-85
2021/07/25 01:12:15;;;;;;;15.83;14.07;;;22.30;99.90;;;;;;5057099;28;20407;-84
2021/07/25 01:14:44;;;;;;;15.17;13.57;;;22.20;99.90;;;;;;5055553;28;20505;-83
2021/07/25 01:17:28;;;;;;;16.20;13.67;;;22.20;99.90;;;;;;5039429;28;20443;-83
2021/07/25 01:19:56;;;;;;;16.37;14.57;;;22.10;99.90;;;;;;5039129;28;20851;-84
2021/07/25 01:22:23;;;;;;;16.37;13.60;;;22.10;99.90;;;;;;5039479;28;20443;-84
2021/07/25 01:24:51;;;;;;;19.33;15.77;;;22.10;99.90;;;;;;5039722;28;20497;-84
2021/07/25 01:27:23;;;;;;;19.23;15.60;;;22.00;99.90;;;;;;5039355;28;20471;-84
2021/07/25 01:29:51;;;;;;;16.03;14.20;;;22.00;99.90;;;;;;5040323;28;20447;-84
2021/07/25 01:32:18;;;;;;;15.53;13.93;;;21.90;99.90;;;;;;5039367;28;20451;-84
2021/07/25 01:34:45;;;;;;;15.17;13.67;;;21.90;99.90;;;;;;5037740;28;20868;-84
2021/07/25 01:37:14;;;;;;;15.77;14.23;;;21.90;99.90;;;;;;5038293;28;20497;-84
2021/07/25 01:39:41;;;;;;;15.57;14.00;;;21.90;99.90;;;;;;5038457;28;20533;-84
2021/07/25 01:42:07;;;;;;;15.00;13.60;;;21.80;99.90;;;;;;5038334;28;20530;-84
2021/07/25 01:44:34;;;;;;;16.77;15.00;;;21.80;99.90;;;;;;5039556;28;20471;-84
2021/07/25 01:47:01;;;;;;;14.93;13.40;;;21.40;99.90;;;;;;5038770;28;20447;-84
2021/07/25 01:49:27;;;;;;;15.27;13.67;;;21.80;99.90;;;;;;5038244;28;20447;-85
2021/07/25 01:51:54;;;;;;;19.20;15.30;;;21.70;99.90;;;;;;5040038;28;20451;-85
2021/07/25 01:54:22;;;;;;;19.83;14.53;;;21.70;99.90;;;;;;5039264;28;20558;-84
2021/07/25 01:56:48;;;;;;;17.77;14.60;;;21.70;99.90;;;;;;5039674;28;20447;-85
2021/07/25 01:59:15;;;;;;;15.10;13.50;;;21.60;99.90;;;;;;5039533;28;20494;-84
2021/07/25 02:01:41;;;;;;;15.70;14.10;;;21.70;99.90;;;;;;5039504;28;20462;-85
2021/07/25 02:04:08;;;;;;;17.20;15.10;;;21.30;99.90;;;;;;5039111;28;20447;-85
2021/07/25 02:06:35;;;;;;;14.73;13.20;;;21.60;99.90;;;;;;5039656;28;20455;-85
2021/07/25 02:09:02;;;;;;;18.43;14.70;;;21.50;99.90;;;;;;5044127;28;20558;-84
2021/07/25 02:11:30;;;;;;;15.20;13.70;;;21.50;99.90;;;;;;5056215;28;20425;-83
2021/07/25 02:13:56;;;;;;;16.37;14.60;;;21.50;99.90;;;;;;5055556;28;20466;-84
2021/07/25 02:16:23;;;;;;;16.30;14.60;;;21.50;99.90;;;;;;5050042;28;20443;-83
2021/07/25 02:18:50;;;;;;;17.27;14.77;;;21.50;99.90;;;;;;5054232;28;20447;-84
2021/07/25 02:21:16;;;;;;;16.00;14.30;;;21.50;99.90;;;;;;5057893;28;20232;-84
2021/07/25 02:23:43;;;;;;;16.30;14.60;;;21.50;99.90;;;;;;5055182;28;20427;-83
2021/07/25 02:26:09;;;;;;;15.33;13.73;;;21.40;99.90;;;;;;5060199;28;20466;-83
2021/07/25 02:28:37;;;;;;;21.50;17.92;;;21.40;99.90;;;;;;5051554;28;20450;-85
2021/07/25 02:31:04;;;;;;;19.30;15.73;;;21.30;99.90;;;;;;5045029;28;20570;-84
2021/07/25 02:33:30;;;;;;;16.53;14.03;;;21.30;99.90;;;;;;5043624;28;20451;-84
2021/07/25 02:35:57;;;;;;;17.40;14.73;;;21.30;99.90;;;;;;5042865;28;20486;-85
2021/07/25 02:38:24;;;;;;;18.10;14.20;;;21.30;99.90;;;;;;5044642;28;20453;-84
2021/07/25 02:40:50;;;;;;;15.47;13.83;;;21.30;99.90;;;;;;5042871;28;20502;-84
2021/07/25 02:43:17;;;;;;;14.87;13.30;;;21.20;99.90;;;;;;5054782;28;20443;-83
2021/07/25 02:45:45;;;;;;;17.23;14.67;;;21.20;99.90;;;;;;5058971;28;20463;-84
2021/07/25 02:48:12;;;;;;;20.63;15.20;;;21.20;99.90;;;;;;5059570;28;20439;-82
2021/07/25 02:50:38;;;;;;;17.07;15.33;;;21.10;99.90;;;;;;5060103;28;20462;-83
2021/07/25 02:53:05;;;;;;;17.30;14.93;;;21.00;99.90;;;;;;5059866;28;20431;-83
2021/07/25 02:55:32;;;;;;;18.17;15.37;;;20.70;99.90;;;;;;5051179;28;20467;-85
2021/07/25 02:57:58;;;;;;;14.87;13.37;;;21.00;99.90;;;;;;5042546;28;20443;-84
2021/07/25 03:00:25;;;;;;;16.50;14.70;;;21.00;99.90;;;;;;5042729;28;20510;-84
2021/07/25 03:02:56;;;;;;;17.23;14.63;;;20.90;99.90;;;;;;5042567;28;20455;-85
2021/07/25 03:05:22;;;;;;;15.10;13.50;;;20.90;99.90;;;;;;5042331;28;20462;-84
2021/07/25 03:07:49;;;;;;;17.50;15.07;;;20.90;99.90;;;;;;5041960;28;20490;-84
2021/07/25 03:10:17;;;;;;;16.97;15.07;;;20.80;99.90;;;;;;5042447;28;20451;-85
2021/07/25 03:12:44;;;;;;;20.87;14.30;;;20.80;99.90;;;;;;5042039;28;20829;-85
2021/07/25 03:15:11;;;;;;;17.30;15.43;;;20.70;99.90;;;;;;5041753;28;20467;-85
2021/07/25 03:17:38;;;;;;;15.90;14.00;;;20.80;99.90;;;;;;5041885;28;20510;-85
2021/07/25 03:20:07;;;;;;;16.83;15.00;;;20.70;99.90;;;;;;5041879;28;20267;-85
2021/07/25 03:22:34;;;;;;;17.43;13.53;;;20.70;99.90;;;;;;5041494;28;20819;-85
2021/07/25 03:25:01;;;;;;;18.38;14.38;;;20.70;99.90;;;;;;5042423;28;20472;-85
2021/07/25 03:27:29;;;;;;;16.37;14.67;;;20.70;99.90;;;;;;5041604;28;20578;-85
2021/07/25 03:29:55;;;;;;;17.17;14.50;;;20.70;99.90;;;;;;5041671;28;20489;-85
2021/07/25 03:32:22;;;;;;;16.00;14.47;;;20.70;99.90;;;;;;5040683;28;20486;-85
2021/07/25 03:34:49;;;;;;;18.90;15.47;;;20.70;99.90;;;;;;5041355;28;20479;-85
2021/07/25 03:37:18;;;;;;;18.47;15.70;;;20.70;99.90;;;;;;5041917;28;20447;-85
2021/07/25 03:39:47;;;;;;;17.97;15.47;;;20.70;99.90;;;;;;5041333;28;20512;-85
2021/07/25 03:42:14;;;;;;;21.20;16.80;;;20.60;99.90;;;;;;5041504;28;20454;-85
2021/07/25 03:44:42;;;;;;;17.97;14.13;;;20.60;99.90;;;;;;5041836;28;20482;-85
2021/07/25 03:47:10;;;;;;;18.83;16.93;;;20.60;99.90;;;;;;5041931;28;20470;-85
2021/07/25 03:49:38;;;;;;;18.77;14.70;;;20.60;99.90;;;;;;5041128;28;20439;-85
2021/07/25 03:52:05;;;;;;;17.17;15.10;;;20.60;99.90;;;;;;5041029;28;21015;-85
2021/07/25 03:54:34;;;;;;;18.33;14.77;;;20.60;99.90;;;;;;5041639;28;20467;-85
2021/07/25 03:57:00;;;;;;;24.47;18.33;;;20.60;99.90;;;;;;5042192;28;20455;-85
2021/07/25 03:59:28;;;;;;;17.40;15.40;;;20.60;99.90;;;;;;5041576;28;20459;-84
2021/07/25 04:01:55;;;;;;;15.30;13.80;;;20.60;99.90;;;;;;5040909;28;20510;-85
2021/07/25 04:04:21;;;;;;;15.50;13.80;;;20.60;99.90;;;;;;5041722;28;20471;-85
2021/07/25 04:06:48;;;;;;;15.80;14.03;;;;;;;;;;5053950;28;20442;-84
2021/07/25 04:09:15;;;;;;;18.73;14.90;;;20.60;99.90;;;;;;5059034;28;20427;-84
2021/07/25 04:11:43;;;;;;;17.13;15.40;;;20.50;99.90;;;;;;5058630;28;21012;-83
2021/07/25 04:14:10;;;;;;;15.20;13.47;;;20.30;99.90;;;;;;5058162;28;20447;-84
2021/07/25 04:16:36;;;;;;;15.63;14.00;;;20.60;99.90;;;;;;5058626;28;20473;-83
2021/07/25 04:19:03;;;;;;;17.10;14.97;;;20.60;99.90;;;;;;5059445;28;20527;-84
2021/07/25 04:21:31;;;;;;;16.20;14.60;;;20.60;99.90;;;;;;5043147;28;20471;-85
2021/07/25 04:23:57;;;;;;;16.40;14.70;;;20.50;99.90;;;;;;5041764;28;20953;-86
2021/07/25 04:26:24;;;;;;;19.23;15.60;;;20.40;99.90;;;;;;5048806;28;20450;-85
2021/07/25 04:28:52;;;;;;;16.00;14.50;;;20.40;99.90;;;;;;5042075;28;20449;-85
2021/07/25 04:31:19;;;;;;;18.03;14.30;;;20.40;99.90;;;;;;5042448;28;20440;-85
2021/07/25 04:33:51;;;;;;;22.33;15.50;;;20.50;99.90;;;;;;5041626;28;20490;-85
2021/07/25 04:36:24;;;;;;;16.50;13.53;;;20.50;99.90;;;;;;5041701;28;20494;-85
2021/07/25 04:38:51;;;;;;;18.07;14.80;;;20.50;99.90;;;;;;5042041;28;20491;-85
2021/07/25 04:41:21;;;;;;;18.17;14.20;;;20.50;99.90;;;;;;5041549;28;20888;-85
2021/07/25 04:43:50;;;;;;;18.87;15.33;;;20.60;99.90;;;;;;5042006;28;20509;-85
2021/07/25 04:46:25;;;;;;;17.13;14.63;;;20.50;99.90;;;;;;5044320;28;20467;-85
2021/07/25 04:48:59;;;;;;;19.10;16.10;;;20.60;99.90;;;;;;5050757;28;20462;-83
2021/07/25 04:51:27;;;;;;;26.87;21.97;;;20.60;99.90;;;;;;5057993;28;20415;-83
2021/07/25 04:53:55;;;;;;;17.57;15.70;;;20.40;99.90;;;;;;5057256;28;20470;-84
2021/07/25 04:56:23;;;;;;;17.43;14.47;;;20.50;99.90;;;;;;5057215;28;20435;-85
2021/07/25 04:58:55;;;;;;;21.23;17.10;;;20.50;99.90;;;;;;5058159;28;20446;-83
2021/07/25 05:01:26;;;;;;;17.03;15.00;;;20.50;99.90;;;;;;5057986;28;20451;-83
2021/07/25 05:03:54;;;;;;;16.90;14.77;;;20.50;99.90;;;;;;5057176;28;20423;-83
2021/07/25 05:06:23;;;;;;;16.40;14.70;;;20.50;99.90;;;;;;5057499;28;20454;-83
2021/07/25 05:08:50;;;;;;;23.07;15.43;;;20.60;99.90;;;;;;5057595;28;20431;-82
2021/07/25 05:11:18;;;;;;;17.67;15.53;;;20.60;99.90;;;;;;5057767;28;20444;-82
2021/07/25 05:13:47;;;;;;;17.63;15.00;;;20.60;99.90;;;;;;5055597;28;20431;-83
2021/07/25 05:16:22;;;;;;;26.57;21.50;;;20.60;99.90;;;;;;5057720;28;20459;-82
2021/07/25 05:19:01;;;;;;;16.93;14.97;;;20.60;99.90;;;;;;5057689;28;20427;-82
2021/07/25 05:21:33;;;;;;;18.17;16.10;;;20.70;99.90;;;;;;5056398;28;20446;-85
2021/07/25 05:24:03;;;;;;;17.73;14.60;;;20.90;99.90;;;;;;5056927;28;20428;-82
2021/07/25 05:26:31;;;;;;;15.63;14.13;;;20.80;99.90;;;;;;5057969;28;20431;-83
2021/07/25 05:28:59;;;;;;;17.40;15.30;;;20.90;99.90;;;;;;5058138;28;20443;-82
2021/07/25 05:31:30;;;;;;;18.40;15.53;;;20.90;99.90;;;;;;5056958;28;20453;-82
2021/07/25 05:33:59;;;;;;;15.27;13.77;;;21.00;99.90;;;;;;5057328;28;20430;-83
2021/07/25 05:36:26;;;;;;;18.07;16.03;;;21.00;99.90;;;;;;5054897;22;20498;-81
2021/07/25 05:38:53;;;;;;;16.50;14.90;;;21.00;99.90;;;;;;5040739;28;20482;-81
2021/07/25 05:41:20;;;;;;;18.27;16.13;;;21.00;99.90;;;;;;5041462;28;20494;-81
2021/07/25 05:43:46;;;;;;;18.67;14.63;;;20.90;99.90;;;;;;5037899;28;20769;-81
2021/07/25 05:46:13;;;;;;;16.70;14.60;;;20.90;99.90;;;;;;5037492;28;20510;-81
2021/07/25 05:48:40;;;;;;;19.00;15.53;;;20.90;99.90;;;;;;5036876;28;20485;-81
2021/07/25 05:51:07;;;;;;;16.50;14.80;;;21.00;99.90;;;;;;5037391;28;20469;-82
2021/07/25 05:53:34;;;;;;;15.97;14.27;;;21.20;99.90;;;;;;5036823;28;20918;-82
2021/07/25 05:56:01;;;;;;;15.20;13.73;;;21.30;99.90;;;;;;5036492;28;20502;-82
2021/07/25 05:58:27;;;;;;;33.20;14.87;;;21.40;99.90;;;;;;5037270;28;20486;-82
2021/07/25 06:00:54;;;;;;;18.50;14.90;;;21.50;99.90;;;;;;5036952;28;20479;-82
2021/07/25 06:03:20;;;;;;;25.20;20.93;;;21.50;99.90;;;;;;5038435;28;20490;-82
2021/07/25 06:05:47;;;;;;;17.10;15.43;;;21.60;99.90;;;;;;5037179;28;20494;-82
2021/07/25 06:08:15;;;;;;;16.60;15.00;;;21.70;99.90;;;;;;5036661;28;20455;-82
2021/07/25 06:10:43;;;;;;;16.17;13.90;;;21.80;99.90;;;;;;5037239;28;20474;-82
2021/07/25 06:13:10;;;;;;;15.80;14.00;;;22.00;99.90;;;;;;5037083;28;20465;-81
2021/07/25 06:15:37;;;;;;;16.63;14.77;;;22.00;99.90;;;;;;5035509;28;20498;-82
2021/07/25 06:18:06;;;;;;;40.70;31.40;;;22.10;99.90;;;;;;5036126;28;20465;-81
2021/07/25 06:20:33;;;;;;;22.00;19.70;;;22.10;99.90;;;;;;5036242;28;20458;-82
2021/07/25 06:23:00;;;;;;;16.47;14.97;;;22.20;99.90;;;;;;5038624;28;20451;-82
2021/07/25 06:25:30;;;;;;;14.80;13.23;;;22.30;99.90;;;;;;5036517;28;20463;-81
2021/07/25 06:27:59;;;;;;;20.43;15.30;;;22.20;99.90;;;;;;5036218;28;20526;-81
2021/07/25 06:30:27;;;;;;;19.23;14.70;;;22.30;99.90;;;;;;5036221;28;20965;-81
2021/07/25 06:32:58;;;;;;;17.23;15.53;;;22.30;99.90;;;;;;5037186;28;20883;-81
2021/07/25 06:35:26;;;;;;;17.17;15.40;;;22.20;99.90;;;;;;5041278;28;20467;-81
2021/07/25 06:37:53;;;;;;;16.53;14.83;;;22.10;99.90;;;;;;5041160;28;20443;-81
2021/07/25 06:40:20;;;;;;;17.03;15.33;;;22.10;99.90;;;;;;5046623;28;20427;-81
2021/07/25 06:42:48;;;;;;;16.77;14.93;;;22.10;99.90;;;;;;5054640;28;20483;-80
2021/07/25 06:45:15;;;;;;;15.60;13.97;;;22.10;99.90;;;;;;5047060;28;20462;-81
2021/07/25 06:47:46;;;;;;;17.60;15.93;;;22.10;99.90;;;;;;5039320;28;20477;-81
2021/07/25 06:50:12;;;;;;;22.10;17.70;;;22.10;99.90;;;;;;5036348;28;20439;-80
2021/07/25 06:52:39;;;;;;;19.90;17.83;;;22.20;99.90;;;;;;5037039;28;20471;-81
2021/07/25 06:55:07;;;;;;;16.50;14.87;;;22.20;99.90;;;;;;5037382;28;20472;-80
2021/07/25 06:57:34;;;;;;;17.97;16.03;;;22.30;99.90;;;;;;5037273;28;20450;-81
2021/07/25 07:00:02;;;;;;;19.00;16.53;;;22.30;99.90;;;;;;5037013;28;20451;-80
2021/07/25 07:02:29;;;;;;;17.60;15.80;;;22.40;99.90;;;;;;5036668;28;21072;-82
2021/07/25 07:04:56;;;;;;;17.70;15.90;;;22.40;99.90;;;;;;5039193;28;20521;-82
2021/07/25 07:07:22;;;;;;;18.47;15.37;;;22.50;99.90;;;;;;5039203;28;20446;-82
2021/07/25 07:09:49;;;;;;;20.50;15.97;;;22.60;99.90;;;;;;5040248;28;20454;-82
2021/07/25 07:12:15;;;;;;;17.37;15.67;;;22.60;99.90;;;;;;5040383;28;20443;-82
2021/07/25 07:14:42;;;;;;;16.60;14.80;;;22.80;99.90;;;;;;5040363;28;20465;-82
2021/07/25 07:17:10;;;;;;;15.43;13.93;;;22.80;99.90;;;;;;5041135;28;21006;-82
2021/07/25 07:19:36;;;;;;;17.00;15.20;;;22.90;99.90;;;;;;5041637;28;20493;-82
2021/07/25 07:22:03;;;;;;;18.80;15.03;;;23.00;99.90;;;;;;5058233;28;20489;-81
2021/07/25 07:24:30;;;;;;;17.57;15.50;;;22.80;99.90;;;;;;5056468;28;20458;-82
2021/07/25 07:26:56;;;;;;;16.93;15.33;;;23.10;99.90;;;;;;5044948;28;20471;-82
2021/07/25 07:29:23;;;;;;;16.77;15.27;;;23.20;99.90;;;;;;5042270;28;20479;-81
2021/07/25 07:31:49;;;;;;;16.77;15.07;;;23.30;99.90;;;;;;5042178;28;20447;-82
2021/07/25 07:34:17;;;;;;;16.97;15.17;;;23.40;99.90;;;;;;5043386;28;20451;-82
2021/07/25 07:36:44;;;;;;;16.13;14.63;;;23.40;99.90;;;;;;5042441;28;20455;-82
2021/07/25 07:39:10;;;;;;;16.73;14.80;;;23.50;99.90;;;;;;5042002;28;20862;-82
2021/07/25 07:41:37;;;;;;;16.30;14.60;;;23.50;99.90;;;;;;5042857;28;20511;-82
2021/07/25 07:44:04;;;;;;;17.53;15.73;;;23.60;99.90;;;;;;5042835;28;20447;-82
2021/07/25 07:46:30;;;;;;;16.53;14.83;;;23.60;99.90;;;;;;5042777;28;20498;-82
2021/07/25 07:48:57;;;;;;;15.10;13.60;;;23.60;99.90;;;;;;5042714;28;20451;-81
2021/07/25 07:51:25;;;;;;;16.40;14.80;;;23.60;99.90;;;;;;5045399;28;20466;-83
2021/07/25 07:53:51;;;;;;;17.23;14.87;;;23.70;99.90;;;;;;5045268;28;20486;-82
2021/07/25 07:56:18;;;;;;;17.03;15.23;;;23.80;99.90;;;;;;5042879;28;20499;-82
2021/07/25 07:58:44;;;;;;;16.73;15.20;;;23.80;99.90;;;;;;5041904;28;20475;-83
2021/07/25 08:01:11;;;;;;;15.83;14.20;;;23.90;99.90;;;;;;5043122;28;20485;-81
2021/07/25 08:03:38;;;;;;;17.33;15.63;;;23.90;99.90;;;;;;5055066;28;20439;-80
2021/07/25 08:06:04;;;;;;;16.10;14.60;;;23.90;99.90;;;;;;5058128;28;20470;-82
2021/07/25 08:08:32;;;;;;;17.83;16.13;;;23.80;99.90;;;;;;5058468;28;20443;-80
2021/07/25 08:10:59;;;;;;;17.05;15.55;;;23.90;99.90;;;;;;5046569;28;20453;-82
2021/07/25 08:13:25;;;;;;;17.07;15.23;;;24.00;99.90;;;;;;5041712;28;20200;-82
2021/07/25 08:15:52;;;;;;;18.20;15.70;;;24.00;99.90;;;;;;5041403;28;20474;-81
2021/07/25 08:18:18;;;;;;;16.77;15.27;;;24.00;99.90;;;;;;5039849;28;20451;-81
2021/07/25 08:20:45;;;;;;;17.10;15.03;;;24.00;99.90;;;;;;5047199;28;20466;-81
2021/07/25 08:23:11;;;;;;;15.77;14.17;;;24.10;99.90;;;;;;5054727;28;20487;-82
2021/07/25 08:25:39;;;;;;;17.73;15.70;;;24.20;99.90;;;;;;5054847;28;20520;-82
2021/07/25 08:28:06;;;;;;;17.17;15.30;;;24.20;99.90;;;;;;5054164;28;20865;-80
2021/07/25 08:30:33;;;;;;;16.93;15.13;;;24.30;99.90;;;;;;5053407;28;20447;-80
2021/07/25 08:33:00;;;;;;;17.67;15.77;;;24.40;99.90;;;;;;5055509;28;20462;-80
2021/07/25 08:35:27;;;;;;;17.50;15.53;;;24.40;99.90;;;;;;5054814;28;20467;-81
2021/07/25 08:37:54;;;;;;;17.60;15.80;;;24.60;99.90;;;;;;5054397;28;20444;-82
2021/07/25 08:40:22;;;;;;;15.53;13.97;;;24.60;99.90;;;;;;5054140;28;20446;-80
2021/07/25 08:43:05;;;;;;;17.03;15.30;;;24.70;99.90;;;;;;5055333;28;20490;-81
2021/07/25 08:45:31;;;;;;;15.53;14.07;;;24.60;99.90;;;;;;5054127;28;20550;-80
2021/07/25 08:48:04;;;;;;;16.63;15.00;;;24.70;99.90;;;;;;5053292;28;20450;-80
2021/07/25 08:50:35;;;;;;;16.27;14.27;;;24.70;99.90;;;;;;5053874;28;20436;-80
2021/07/25 08:53:03;;;;;;;16.33;14.70;;;24.80;99.90;;;;;;5054190;28;20522;-81
2021/07/25 08:55:34;;;;;;;15.60;14.10;;;24.90;99.90;;;;;;5055770;28;20578;-81
2021/07/25 08:58:07;;;;;;;18.90;16.90;;;25.00;99.90;;;;;;5054212;28;20427;-82
2021/07/25 09:00:35;;;;;;;16.70;14.80;;;25.10;99.90;;;;;;5053227;28;20427;-82
2021/07/25 09:03:05;;;;;;;18.20;14.97;;;25.20;99.90;;;;;;5053287;28;20483;-81
2021/07/25 09:05:31;;;;;;;16.53;14.87;;;25.20;99.90;;;;;;5048820;28;20467;-80
2021/07/25 09:07:58;;;;;;;16.27;14.70;;;25.20;99.90;;;;;;5046796;28;20454;-80
2021/07/25 09:10:25;;;;;;;15.70;14.03;;;25.30;99.90;;;;;;5039376;28;20530;-80
2021/07/25 09:12:55;;;;;;;16.47;14.77;;;25.30;99.90;;;;;;5039018;28;20790;-81
2021/07/25 09:15:26;;;;;;;16.20;14.80;;;25.40;99.90;;;;;;5038605;28;20471;-81
2021/07/25 09:17:55;;;;;;;17.23;15.43;;;25.50;99.90;;;;;;5039985;28;20502;-81
2021/07/25 09:20:24;;;;;;;17.30;15.80;;;25.50;99.90;;;;;;5039676;28;20450;-81
2021/07/25 09:23:10;;;;;;;23.23;20.83;;;25.50;99.90;;;;;;5038519;28;20513;-81
2021/07/25 09:25:40;;;;;;;20.10;18.13;;;25.60;99.90;;;;;;5038450;28;20473;-81
2021/07/25 09:28:31;;;;;;;15.90;14.40;;;25.60;99.90;;;;;;5038380;28;20435;-81
2021/07/25 09:31:14;;;;;;;17.77;16.10;;;25.70;99.90;;;;;;5037795;28;20530;-81
2021/07/25 09:33:45;;;;;;;19.27;17.40;;;25.80;99.90;;;;;;5039534;28;20411;-81
2021/07/25 09:36:22;;;;;;;20.07;17.97;;;25.90;99.90;;;;;;5039481;28;20471;-81
2021/07/25 09:38:51;;;;;;;18.17;16.27;;;26.00;99.90;;;;;;5037879;28;20535;-81
2021/07/25 09:41:20;;;;;;;18.97;15.67;;;26.00;99.90;;;;;;5040718;28;20447;-81
2021/07/25 09:43:59;;;;;;;18.00;16.17;;;26.10;99.90;;;;;;5037770;28;20443;-81
2021/07/25 09:46:27;;;;;;;18.27;16.37;;;26.20;99.90;;;;;;5044367;28;20574;-81
2021/07/25 09:48:56;;;;;;;16.43;14.10;;;26.30;99.90;;;;;;5039147;28;20442;-81
2021/07/25 09:51:24;;;;;;;19.57;17.53;;;26.40;99.90;;;;;;5039884;28;20537;-81
2021/07/25 09:53:52;;;;;;;18.67;16.80;;;26.50;99.90;;;;;;5038680;28;20443;-81
2021/07/25 09:56:22;;;;;;;18.27;16.30;;;26.50;99.90;;;;;;5037297;28;20475;-81
2021/07/25 09:58:48;;;;;;;17.23;15.60;;;26.60;99.90;;;;;;5042070;28;20565;-81
2021/07/25 10:01:38;;;;;;;16.50;14.90;;;26.70;99.90;;;;;;5037915;28;20478;-81
2021/07/25 10:04:17;;;;;;;16.60;14.77;;;26.70;99.90;;;;;;5038336;28;20802;-82
2021/07/25 10:06:45;;;;;;;16.93;13.50;;;26.70;99.90;;;;;;5039474;28;20478;-82
2021/07/25 10:09:13;;;;;;;15.67;14.17;;;26.70;99.90;;;;;;5040034;28;20447;-83
2021/07/25 10:11:43;;;;;;;16.27;14.77;;;26.70;99.90;;;;;;5038322;28;20505;-83
2021/07/25 10:14:09;;;;;;;18.70;16.70;;;26.80;99.90;;;;;;5039048;28;20490;-82
2021/07/25 10:16:37;;;;;;;19.40;17.20;;;26.80;99.90;;;;;;5040355;28;20499;-82
2021/07/25 10:19:06;;;;;;;17.30;15.63;;;26.80;99.90;;;;;;5055705;28;20434;-81
2021/07/25 10:21:34;;;;;;;16.20;14.70;;;26.90;99.90;;;;;;5057565;28;20439;-79
2021/07/25 10:24:03;;;;;;;22.43;16.77;;;26.90;99.90;;;;;;5054024;28;20509;-82
2021/07/25 10:26:30;;;;;;;18.23;16.30;;;27.00;99.90;;;;;;5043332;28;20467;-82
2021/07/25 10:28:58;;;;;;;16.10;14.60;;;27.10;99.90;;;;;;5040832;28;20447;-82
2021/07/25 10:31:26;;;;;;;17.13;15.33;;;27.10;99.90;;;;;;5041566;28;20451;-82
2021/07/25 10:33:55;;;;;;;15.97;14.37;;;27.10;99.90;;;;;;5040194;28;20517;-82
2021/07/25 10:36:23;;;;;;;16.50;14.90;;;27.20;99.90;;;;;;5038780;28;20530;-82
2021/07/25 10:38:50;;;;;;;14.90;13.70;;;27.20;99.90;;;;;;5037948;28;20455;-82
2021/07/25 10:41:21;;;;;;;17.87;16.17;;;27.20;99.90;;;;;;5038939;28;20481;-82
2021/07/25 10:43:48;;;;;;;19.47;15.10;;;27.30;99.90;;;;;;5043063;28;20609;-82
2021/07/25 10:46:20;;;;;;;17.70;16.00;;;27.30;99.90;;;;;;5042736;28;20471;-82
2021/07/25 10:49:16;;;;;;;16.00;14.47;;;27.30;99.90;;;;;;5046734;28;20447;-81
2021/07/25 10:52:00;;;;;;;16.13;14.60;;;27.40;99.90;;;;;;5047596;28;20439;-82
2021/07/25 10:54:47;;;;;;;27.10;17.10;;;27.50;99.90;;;;;;5053472;28;20435;-82
2021/07/25 10:57:14;;;;;;;18.30;16.50;;;27.50;99.90;;;;;;5055430;28;20435;-80
2021/07/25 10:59:46;;;;;;;15.63;14.00;;;27.70;99.90;;;;;;5056766;28;20506;-81
2021/07/25 11:02:17;;;;;;;17.40;15.60;;;27.90;99.90;;;;;;5046666;28;20785;-82
2021/07/25 11:05:05;;;;;;;17.90;15.50;;;28.00;99.90;;;;;;5043927;28;20475;-82
2021/07/25 11:07:39;;;;;;;17.10;15.43;;;28.00;99.90;;;;;;5042853;28;20458;-82
2021/07/25 11:10:11;;;;;;;16.50;14.80;;;28.00;99.90;;;;;;5041953;28;20431;-82
2021/07/25 11:13:11;;;;;;;20.17;16.20;;;28.00;99.90;;;;;;5041984;28;20439;-82
2021/07/25 11:15:38;;;;;;;15.60;13.90;;;28.10;99.90;;;;;;5041506;28;20487;-81
2021/07/25 11:18:06;;;;;;;27.97;21.50;;;28.00;99.90;;;;;;5050459;28;20438;-82
2021/07/25 11:20:56;;;;;;;32.20;27.83;;;27.90;99.90;;;;;;5041764;28;20447;-82
2021/07/25 11:23:33;;;;;;;18.33;16.50;;;27.80;99.90;;;;;;5040117;28;20514;-82
2021/07/25 11:26:31;;;;;;;18.93;16.97;;;27.70;99.90;;;;;;5039985;28;20474;-82
2021/07/25 11:28:58;;;;;;;18.33;16.40;;;27.60;99.90;;;;;;5044310;28;20467;-82
2021/07/25 11:31:46;;;;;;;24.17;21.60;;;27.60;99.90;;;;;;5057054;28;20447;-82
2021/07/25 11:34:15;;;;;;;17.13;15.43;;;27.70;99.90;;;;;;5042617;28;20513;-82
2021/07/25 11:36:47;;;;;;;15.33;13.80;;;27.90;99.90;;;;;;5066576;22;20918;-85
2021/07/25 11:39:14;;;;;;;15.23;13.80;;;28.10;99.90;;;;;;5044378;28;20431;-85
2021/07/25 11:41:40;;;;;;;19.10;15.80;;;28.10;99.90;;;;;;5045468;28;20453;-85
2021/07/25 11:44:08;;;;;;;21.13;17.60;;;28.10;99.90;;;;;;5043917;28;21008;-85
2021/07/25 11:46:38;;;;;;;18.10;16.30;;;28.10;99.90;;;;;;5043100;28;20474;-86
2021/07/25 11:49:09;;;;;;;42.73;30.53;;;28.00;99.90;;;;;;5042720;28;20958;-86
2021/07/25 11:51:37;;;;;;;17.57;15.67;;;28.00;99.90;;;;;;5042667;28;20458;-85
2021/07/25 11:54:06;;;;;;;27.30;21.77;;;28.00;99.90;;;;;;5042037;28;20443;-85
2021/07/25 11:56:32;;;;;;;15.90;14.37;;;28.00;99.90;;;;;;5043010;28;20467;-85
2021/07/25 11:59:04;;;;;;;22.13;18.33;;;28.10;99.90;;;;;;5047229;28;20477;-85
2021/07/25 12:01:35;;;;;;;20.73;18.17;;;28.10;99.90;;;;;;5044495;28;20432;-84
2021/07/25 12:04:17;;;;;;;16.43;13.93;;;28.50;99.90;;;;;;5043940;28;20467;-86
2021/07/25 12:06:44;;;;;;;15.37;14.07;;;28.30;99.90;;;;;;5056834;28;20447;-83
2021/07/25 12:09:12;;;;;;;19.93;18.00;;;28.20;99.90;;;;;;5055260;28;20443;-85
2021/07/25 12:11:40;;;;;;;16.43;13.83;;;28.20;99.90;;;;;;5049573;28;20447;-85
2021/07/25 12:14:07;;;;;;;15.37;13.90;;;28.20;99.90;;;;;;5055336;28;20443;-84
2021/07/25 12:17:44;;;;;;;17.63;15.83;;;28.30;99.90;;;;;;5052679;28;20490;-84
2021/07/25 12:20:12;;;;;;;18.40;15.00;;;28.60;99.90;;;;;;5013137;28;20452;-84
2021/07/25 12:22:49;;;;;;;17.33;15.57;;;28.60;99.90;;;;;;5053064;28;20468;-85
2021/07/25 12:25:17;;;;;;;16.33;14.73;;;28.70;99.90;;;;;;5047662;28;20547;-85
2021/07/25 12:27:43;;;;;;;16.63;15.13;;;28.70;99.90;;;;;;5046004;28;20443;-85
2021/07/25 12:30:17;;;;;;;16.07;14.67;;;28.60;99.90;;;;;;5044702;28;20462;-85
2021/07/25 12:32:45;;;;;;;16.67;15.07;;;28.50;99.90;;;;;;5044924;28;20481;-85
2021/07/25 12:35:33;;;;;;;16.73;15.10;;;28.30;99.90;;;;;;5043371;28;20545;-85
2021/07/25 12:38:03;;;;;;;15.83;14.23;;;28.30;99.90;;;;;;5046488;28;20462;-85
2021/07/25 12:40:32;;;;;;;16.67;15.27;;;28.30;99.90;;;;;;5055567;28;20443;-85